Time;durP1;ratioP1;P1;durP2;ratioP2;P2;SDS_P1;SDS_P2;PMS_P1;PMS_P2;Temp;Humidity;BMP_temperature;BMP_pressure;BME280_temperature;BME280_humidity;BME280_pressure;Samples;Min_cycle;Max_cycle;Signal;HPM_P1;HPM_P2
2021/10/19 00:00:59;;;;;;;9.48;7.75;;;;;;;14.13;100.00;101768.47;5228251;28;20057;-69
2021/10/19 00:03:30;;;;;;;10.00;7.78;;;;;;;14.13;100.00;101771.09;5234106;28;20393;-69
2021/10/19 00:06:01;;;;;;;10.13;7.60;;;;;;;14.12;100.00;101769.41;5232437;28;20025;-71
2021/10/19 00:08:33;;;;;;;10.20;8.10;;;;;;;14.11;100.00;101765.09;5230427;28;20027;-69
2021/10/19 00:11:05;;;;;;;10.40;8.00;;;;;;;14.14;100.00;101764.84;5233814;28;20541;-68
2021/10/19 00:13:37;;;;;;;9.10;7.97;;;;;;;14.12;100.00;101772.88;5233287;28;20045;-68
2021/10/19 00:16:11;;;;;;;9.15;7.90;;;;;;;14.15;100.00;101778.84;5232284;28;20541;-68
2021/10/19 00:18:42;;;;;;;9.73;7.85;;;;;;;14.10;100.00;101782.72;5228141;28;20026;-69
2021/10/19 00:21:13;;;;;;;11.30;8.02;;;;;;;14.15;100.00;101790.22;5230861;28;20034;-68
2021/10/19 00:23:45;;;;;;;9.00;8.05;;;;;;;14.17;100.00;101792.72;5233340;28;20033;-68
2021/10/19 00:26:16;;;;;;;12.32;8.45;;;;;;;14.16;100.00;101786.63;5232378;28;20021;-69
2021/10/19 00:28:47;;;;;;;10.43;8.85;;;;;;;14.17;100.00;101785.69;5233114;28;20529;-70
2021/10/19 00:31:19;;;;;;;9.65;7.97;;;;;;;14.17;100.00;101784.81;5231992;28;20032;-68
2021/10/19 00:33:50;;;;;;;10.63;8.90;;;;;;;14.17;100.00;101785.69;5230280;28;20040;-69
2021/10/19 00:36:21;;;;;;;11.48;8.85;;;;;;;14.18;100.00;101794.41;5231340;28;20030;-70
2021/10/19 00:38:53;;;;;;;12.27;9.30;;;;;;;14.18;100.00;101784.69;5233078;28;20088;-68
2021/10/19 00:41:24;;;;;;;11.77;8.77;;;;;;;14.18;100.00;101783.88;5231950;28;20021;-70
2021/10/19 00:43:56;;;;;;;13.05;9.05;;;;;;;14.16;100.00;101780.53;5231475;28;20030;-68
2021/10/19 00:46:27;;;;;;;11.93;8.70;;;;;;;14.12;100.00;101775.50;5232466;28;20387;-68
2021/10/19 00:48:59;;;;;;;10.98;9.80;;;;;;;14.09;100.00;101761.75;5231241;28;20033;-69
2021/10/19 00:51:31;;;;;;;12.48;10.38;;;;;;;14.08;100.00;101768.00;5231155;28;20075;-68
2021/10/19 00:54:02;;;;;;;14.05;9.40;;;;;;;14.06;100.00;101764.66;5232613;28;20025;-68
2021/10/19 00:56:38;;;;;;;11.75;9.95;;;;;;;14.09;100.00;101765.25;5232870;28;20053;-68
2021/10/19 00:59:09;;;;;;;11.10;9.63;;;;;;;14.05;100.00;101752.44;5233494;28;20096;-68
2021/10/19 01:01:41;;;;;;;12.48;9.45;;;;;;;14.04;100.00;101748.97;5230003;28;20043;-70
2021/10/19 01:04:12;;;;;;;13.65;9.95;;;;;;;14.03;100.00;101757.03;5231859;28;20032;-68
2021/10/19 01:06:45;;;;;;;12.27;9.05;;;;;;;14.04;100.00;101758.69;5232424;28;20028;-70
2021/10/19 01:09:16;;;;;;;16.13;9.35;;;;;;;14.02;100.00;101747.47;5233715;28;20025;-68
2021/10/19 01:11:48;;;;;;;12.13;9.07;;;;;;;14.03;100.00;101754.38;5228754;28;20421;-69
2021/10/19 01:14:19;;;;;;;11.35;8.68;;;;;;;14.04;100.00;101753.41;5233139;28;20029;-68
2021/10/19 01:16:50;;;;;;;11.30;9.40;;;;;;;14.06;100.00;101751.50;5232994;28;20049;-70
2021/10/19 01:19:22;;;;;;;9.88;8.48;;;;;;;14.09;100.00;101751.22;5228561;28;20030;-69
2021/10/19 01:21:56;;;;;;;10.27;8.35;;;;;;;14.11;100.00;101744.84;5231876;28;20034;-69
2021/10/19 01:24:28;;;;;;;11.30;8.70;;;;;;;14.07;100.00;101730.28;5232285;28;20476;-68
2021/10/19 01:26:59;;;;;;;10.40;8.05;;;;;;;14.08;100.00;101736.38;5232618;28;20040;-69
2021/10/19 01:29:31;;;;;;;9.43;8.43;;;;;;;14.09;100.00;101735.41;5231609;28;20718;-68
2021/10/19 01:32:03;;;;;;;11.25;8.75;;;;;;;14.12;100.00;101735.16;5231429;28;20030;-68
2021/10/19 01:34:35;;;;;;;8.55;7.38;;;;;;;14.11;100.00;101723.78;5235228;28;20041;-69
2021/10/19 01:37:07;;;;;;;9.80;8.80;;;;;;;14.16;100.00;101726.00;5234801;28;20079;-69
2021/10/19 01:39:38;;;;;;;9.95;8.63;;;;;;;14.20;100.00;101724.78;5236457;28;20025;-70
2021/10/19 01:42:09;;;;;;;11.10;8.73;;;;;;;14.20;100.00;101718.69;5235944;28;20057;-68
2021/10/19 01:44:40;;;;;;;10.07;8.75;;;;;;;14.23;100.00;101708.69;5235034;28;20021;-70
2021/10/19 01:47:12;;;;;;;9.98;8.95;;;;;;;14.23;100.00;101694.69;5234964;28;20049;-68
2021/10/19 01:49:43;;;;;;;11.10;9.52;;;;;;;14.27;100.00;101682.91;5236260;28;20021;-69
2021/10/19 01:52:14;;;;;;;11.25;9.35;;;;;;;14.30;100.00;101685.28;5234645;28;20671;-69
2021/10/19 01:54:46;;;;;;;11.55;9.13;;;;;;;14.33;100.00;101677.94;5235882;28;20056;-69
2021/10/19 01:57:17;;;;;;;11.65;9.63;;;;;;;14.34;100.00;101670.88;5235045;28;20025;-68
2021/10/19 01:59:49;;;;;;;12.35;9.00;;;;;;;14.32;100.00;101672.81;5235692;28;20029;-69
2021/10/19 02:02:20;;;;;;;12.38;9.85;;;;;;;14.35;100.00;101683.06;5231088;28;20037;-68
2021/10/19 02:04:51;;;;;;;12.60;10.25;;;;;;;14.36;100.00;101676.84;5233841;28;20438;-69
2021/10/19 02:07:22;;;;;;;13.98;9.88;;;;;;;14.36;100.00;101674.22;5235375;28;20026;-69
2021/10/19 02:09:54;;;;;;;13.15;10.00;;;;;;;14.38;100.00;101671.44;5236191;28;20021;-69
2021/10/19 02:12:25;;;;;;;14.73;11.23;;;;;;;14.39;100.00;101665.19;5233654;28;20124;-69
2021/10/19 02:14:57;;;;;;;11.20;9.98;;;;;;;14.33;100.00;101664.78;5236462;28;20036;-68
2021/10/19 02:17:28;;;;;;;11.60;10.40;;;;;;;14.36;100.00;101661.03;5234959;28;20017;-69
2021/10/19 02:20:00;;;;;;;11.60;10.50;;;;;;;14.36;100.00;101664.50;5232045;28;20083;-69
2021/10/19 02:22:32;;;;;;;10.98;9.88;;;;;;;14.36;100.00;101661.88;5231989;28;20033;-68
2021/10/19 02:25:04;;;;;;;10.68;9.57;;;;;;;14.34;100.00;101669.06;5235467;28;20032;-68
2021/10/19 02:27:35;;;;;;;12.75;10.45;;;;;;;14.34;100.00;101661.16;5241496;28;20476;-68
2021/10/19 02:30:07;;;;;;;11.52;10.43;;;;;;;14.32;100.00;101667.56;5234519;28;20036;-70
2021/10/19 02:32:39;;;;;;;10.70;9.60;;;;;;;14.34;100.00;101657.69;5234999;28;20107;-70
2021/10/19 02:35:14;;;;;;;11.05;9.80;;;;;;;14.31;100.00;101656.16;5233645;28;20523;-69
2021/10/19 02:37:45;;;;;;;10.70;9.32;;;;;;;14.28;100.00;101658.22;5233856;28;20377;-70
2021/10/19 02:40:17;;;;;;;10.68;9.57;;;;;;;14.29;100.00;101650.19;5232987;28;20029;-68
2021/10/19 02:42:49;;;;;;;10.82;9.55;;;;;;;14.30;100.00;101649.22;5235602;28;20122;-68
2021/10/19 02:45:20;;;;;;;11.05;9.95;;;;;;;14.26;100.00;101654.91;5234932;28;20040;-69
2021/10/19 02:47:52;;;;;;;11.02;9.00;;;;;;;14.31;100.00;101652.69;5233356;28;20782;-69
2021/10/19 02:50:24;;;;;;;12.45;10.02;;;;;;;14.30;100.00;101646.59;5235499;28;20060;-69
2021/10/19 02:52:55;;;;;;;11.52;10.32;;;;;;;14.27;100.00;101644.22;5233460;28;20032;-68
2021/10/19 02:55:26;;;;;;;12.35;10.75;;;;;;;14.26;100.00;101633.81;5232558;28;20029;-69
2021/10/19 02:57:57;;;;;;;14.82;11.10;;;;;;;14.25;100.00;101630.34;5235176;28;20025;-69
2021/10/19 03:00:29;;;;;;;12.70;10.15;;;;;;;14.25;100.00;101626.88;5230606;28;20030;-69
2021/10/19 03:03:00;;;;;;;12.38;10.27;;;;;;;14.25;100.00;101626.88;5235806;28;20029;-70
2021/10/19 03:05:31;;;;;;;11.23;10.05;;;;;;;14.23;100.00;101621.72;5234231;28;20022;-68
2021/10/19 03:08:03;;;;;;;12.70;10.18;;;;;;;14.22;100.00;101621.88;5232016;28;20482;-69
2021/10/19 03:10:34;;;;;;;11.70;9.75;;;;;;;14.23;100.00;101616.47;5229684;28;20647;-69
2021/10/19 03:13:05;;;;;;;13.35;10.60;;;;;;;14.22;100.00;101627.97;5235323;28;20139;-68
2021/10/19 03:15:37;;;;;;;12.48;10.00;;;;;;;14.24;100.00;101619.91;5234325;28;20029;-70
2021/10/19 03:18:09;;;;;;;12.30;9.32;;;;;;;14.23;100.00;101619.09;5234615;28;20033;-69
2021/10/19 03:20:40;;;;;;;10.77;9.52;;;;;;;14.23;100.00;101627.00;5233287;28;20461;-68
2021/10/19 03:23:11;;;;;;;11.57;10.38;;;;;;;14.23;100.00;101628.81;5234944;28;20025;-69
2021/10/19 03:25:43;;;;;;;11.40;9.93;;;;;;;14.23;100.00;101620.91;5232622;28;20032;-69
2021/10/19 03:28:14;;;;;;;11.20;10.07;;;;;;;14.24;100.00;101618.13;5233188;28;20044;-70
2021/10/19 03:30:45;;;;;;;11.45;10.25;;;;;;;14.25;100.00;101614.53;5233861;28;20036;-69
2021/10/19 03:33:17;;;;;;;10.68;9.57;;;;;;;14.26;100.00;101610.09;5234710;28;20029;-68
2021/10/19 03:35:48;;;;;;;11.68;9.88;;;;;;;14.25;100.00;101609.25;5232298;28;20407;-69
2021/10/19 03:38:19;;;;;;;11.85;10.00;;;;;;;14.27;100.00;101602.03;5232629;28;20395;-68
2021/10/19 03:40:50;;;;;;;12.63;9.75;;;;;;;14.27;100.00;101596.75;5233885;28;20068;-69
2021/10/19 03:43:22;;;;;;;12.00;10.80;;;;;;;14.28;100.00;101594.97;5227975;28;20044;-70
2021/10/19 03:45:53;;;;;;;10.80;9.52;;;;;;;14.28;100.00;101594.97;5233795;28;20068;-68
2021/10/19 03:48:24;;;;;;;12.82;10.13;;;;;;;14.28;100.00;101601.09;5233058;28;20021;-68
2021/10/19 03:50:56;;;;;;;11.77;9.35;;;;;;;14.28;100.00;101608.13;5234451;28;20033;-69
2021/10/19 03:53:27;;;;;;;11.38;10.02;;;;;;;14.27;100.00;101607.31;5234321;28;20022;-69
2021/10/19 03:55:58;;;;;;;11.52;10.43;;;;;;;14.26;100.00;101595.09;5230760;28;20403;-70
2021/10/19 03:58:30;;;;;;;11.02;9.93;;;;;;;14.29;100.00;101580.84;5234244;28;20047;-69
2021/10/19 04:01:01;;;;;;;12.15;10.38;;;;;;;14.30;100.00;101585.97;5228580;28;20033;-69
2021/10/19 04:03:32;;;;;;;11.80;10.20;;;;;;;14.33;100.00;101598.88;5233053;28;20025;-69
2021/10/19 04:06:04;;;;;;;13.27;10.82;;;;;;;14.34;100.00;101597.06;5228687;28;20442;-69
2021/10/19 04:08:35;;;;;;;10.98;9.88;;;;;;;14.35;100.00;101598.72;5231811;28;20026;-70
2021/10/19 04:11:06;;;;;;;11.98;10.70;;;;;;;14.33;100.00;101606.78;5229921;28;20051;-69
2021/10/19 04:13:38;;;;;;;12.13;10.93;;;;;;;14.36;100.00;101603.03;5233405;28;20092;-69
2021/10/19 04:16:10;;;;;;;13.45;11.13;;;;;;;14.36;100.00;101603.88;5230754;28;20064;-70
2021/10/19 04:18:41;;;;;;;13.25;11.35;;;;;;;14.34;100.00;101611.06;5231857;28;20036;-69
2021/10/19 04:21:12;;;;;;;16.65;11.55;;;;;;;14.38;100.00;101598.47;5233002;28;20033;-69
2021/10/19 04:23:44;;;;;;;12.27;11.07;;;;;;;14.38;100.00;101608.16;5229812;28;20076;-69
2021/10/19 04:26:15;;;;;;;14.07;12.45;;;;;;;14.40;100.00;101604.44;5232021;28;20115;-69
2021/10/19 04:28:46;;;;;;;13.00;11.68;;;;;;;14.38;100.00;101602.91;5233585;28;20028;-69
2021/10/19 04:31:18;;;;;;;13.50;12.20;;;;;;;14.41;100.00;101602.63;5229943;28;20116;-70
2021/10/19 04:33:49;;;;;;;13.73;11.70;;;;;;;14.43;100.00;101603.31;5230658;28;20026;-69
2021/10/19 04:36:20;;;;;;;14.02;11.55;;;;;;;14.43;100.00;101606.78;5232419;28;20082;-69
2021/10/19 04:38:52;;;;;;;12.80;11.52;;;;;;;14.42;100.00;101599.84;5232622;28;20025;-68
2021/10/19 04:41:23;;;;;;;14.05;12.65;;;;;;;14.43;100.00;101606.78;5230921;28;20029;-69
2021/10/19 04:43:54;;;;;;;13.43;12.05;;;;;;;14.45;100.00;101601.38;5231171;28;20399;-71
2021/10/19 04:46:26;;;;;;;14.60;11.77;;;;;;;14.45;100.00;101607.50;5232648;28;20342;-69
2021/10/19 04:48:57;;;;;;;13.02;11.68;;;;;;;14.48;100.00;101601.94;5226917;28;20029;-69
2021/10/19 04:51:29;;;;;;;13.05;11.48;;;;;;;14.51;100.00;101606.16;5228909;28;20036;-70
2021/10/19 04:54:00;;;;;;;12.93;11.18;;;;;;;14.51;100.00;101620.16;5231201;28;20033;-69
2021/10/19 04:56:32;;;;;;;12.32;11.02;;;;;;;14.49;100.00;101611.53;5230052;28;20044;-69
2021/10/19 04:59:03;;;;;;;12.27;11.15;;;;;;;14.53;100.00;101607.66;5232069;28;20025;-69
2021/10/19 05:01:34;;;;;;;12.80;11.23;;;;;;;14.56;100.00;101606.56;5231711;28;20068;-69
2021/10/19 05:04:07;;;;;;;13.00;11.75;;;;;;;14.56;100.00;101602.13;5227918;28;20507;-70
2021/10/19 05:06:38;;;;;;;11.67;10.47;;;;;;;14.58;100.00;101600.19;5229622;28;20026;-69
2021/10/19 05:09:09;;;;;;;12.13;10.38;;;;;;;14.56;100.00;101593.38;5226732;28;20067;-70
2021/10/19 05:11:41;;;;;;;11.27;10.18;;;;;;;14.59;100.00;101595.75;5237250;28;20042;-69
2021/10/19 05:14:12;;;;;;;12.68;10.10;;;;;;;14.65;100.00;101602.25;5236624;28;20034;-69
2021/10/19 05:16:43;;;;;;;10.90;9.80;;;;;;;14.62;100.00;101595.44;5234292;28;20040;-70
2021/10/19 05:19:14;;;;;;;10.88;9.10;;;;;;;14.67;100.00;101592.41;5233529;28;20230;-69
2021/10/19 05:21:46;;;;;;;10.35;9.32;;;;;;;14.68;100.00;101591.44;5237335;28;20025;-69
2021/10/19 05:24:17;;;;;;;10.07;9.07;;;;;;;14.68;100.00;101584.34;5234117;28;20125;-69
2021/10/19 05:26:48;;;;;;;10.90;8.98;;;;;;;14.67;100.00;101581.88;5236446;28;20026;-71
2021/10/19 05:29:20;;;;;;;10.82;9.10;;;;;;;14.70;100.00;101577.16;5236902;28;20044;-69
2021/10/19 05:31:51;;;;;;;11.02;9.40;;;;;;;14.71;100.00;101581.44;5235832;28;20021;-69
2021/10/19 05:34:23;;;;;;;10.68;9.60;;;;;;;14.70;100.00;101576.28;5233192;28;20840;-70
2021/10/19 05:36:55;;;;;;;9.90;8.82;;;;;;;14.72;100.00;101587.56;5233362;28;20864;-70
2021/10/19 05:39:26;;;;;;;10.25;9.25;;;;;;;14.72;100.00;101582.28;5234066;28;20387;-69
2021/10/19 05:41:59;;;;;;;11.98;9.43;;;;;;;14.74;100.00;101588.25;5234986;28;20138;-68
2021/10/19 05:44:30;;;;;;;10.77;9.00;;;;;;;14.76;100.00;101583.66;5236609;28;20044;-69
2021/10/19 05:47:01;;;;;;;9.55;8.65;;;;;;;14.75;100.00;101579.38;5235232;28;20033;-69
2021/10/19 05:49:33;;;;;;;9.63;8.73;;;;;;;14.78;100.00;101573.81;5235670;28;20036;-69
2021/10/19 05:52:04;;;;;;;9.65;8.70;;;;;;;14.78;100.00;101579.09;5236157;28;20060;-69
2021/10/19 05:54:36;;;;;;;9.20;8.30;;;;;;;14.79;100.00;101580.75;5233670;28;20033;-69
2021/10/19 05:57:07;;;;;;;9.35;8.45;;;;;;;14.80;100.00;101577.97;5235620;28;20029;-69
2021/10/19 05:59:38;;;;;;;9.23;8.32;;;;;;;14.77;100.00;101558.94;5235811;28;20476;-69
2021/10/19 06:02:10;;;;;;;9.20;8.30;;;;;;;14.80;100.00;101556.84;5235002;28;20557;-70
2021/10/19 06:04:41;;;;;;;8.95;8.05;;;;;;;14.87;100.00;101567.69;5232989;28;20036;-69
2021/10/19 06:07:12;;;;;;;8.90;7.53;;;;;;;14.88;100.00;101586.97;5232408;28;20029;-71
2021/10/19 06:09:44;;;;;;;8.43;7.43;;;;;;;14.88;100.00;101577.25;5234888;28;20382;-68
2021/10/19 06:12:15;;;;;;;8.00;7.28;;;;;;;14.92;100.00;101588.38;5234412;28;20057;-70
2021/10/19 06:14:46;;;;;;;9.43;7.82;;;;;;;14.94;100.00;101581.16;5235216;28;20040;-70
2021/10/19 06:17:18;;;;;;;7.93;7.22;;;;;;;14.97;100.00;101589.63;5235346;28;20075;-69
2021/10/19 06:19:49;;;;;;;8.48;7.35;;;;;;;14.98;100.00;101587.81;5232254;28;20124;-71
2021/10/19 06:22:20;;;;;;;8.07;7.28;;;;;;;14.98;100.00;101586.00;5232588;28;20029;-69
2021/10/19 06:24:52;;;;;;;7.95;7.05;;;;;;;15.00;100.00;101583.22;5233951;28;20124;-69
2021/10/19 06:27:23;;;;;;;7.43;6.72;;;;;;;15.02;100.00;101581.28;5233046;28;20115;-71
2021/10/19 06:29:54;;;;;;;7.75;7.00;;;;;;;15.04;100.00;101588.09;5233383;28;20033;-69
2021/10/19 06:32:26;;;;;;;8.15;6.90;;;;;;;15.06;100.00;101582.66;5235942;28;20116;-70
2021/10/19 06:34:57;;;;;;;9.52;7.93;;;;;;;15.08;100.00;101580.72;5233822;28;20045;-70
2021/10/19 06:37:28;;;;;;;9.57;7.95;;;;;;;15.10;100.00;101570.84;5231723;28;20507;-70
2021/10/19 06:39:59;;;;;;;9.75;7.40;;;;;;;15.10;100.00;101568.22;5231694;28;20313;-70
2021/10/19 06:42:31;;;;;;;8.38;7.35;;;;;;;15.15;100.00;101570.41;5234325;28;20029;-70
2021/10/19 06:45:04;;;;;;;8.82;7.85;;;;;;;15.19;100.00;101571.78;5235106;28;20415;-70
2021/10/19 06:47:35;;;;;;;11.05;8.25;;;;;;;15.21;100.00;101572.50;5231752;28;20037;-69
2021/10/19 06:50:08;;;;;;;8.45;7.32;;;;;;;15.21;100.00;101580.41;5234422;28;20038;-70
2021/10/19 06:52:39;;;;;;;8.83;7.17;;;;;;;15.24;100.00;101572.22;5229751;28;20021;-70
2021/10/19 06:55:10;;;;;;;9.93;7.70;;;;;;;15.29;100.00;101580.53;5230844;28;20475;-70
2021/10/19 06:57:43;;;;;;;7.85;7.05;;;;;;;15.31;100.00;101582.06;5225385;28;20891;-70
2021/10/19 07:00:16;;;;;;;9.55;7.80;;;;;;;15.28;100.00;101576.25;5234236;28;20021;-70
2021/10/19 07:02:47;;;;;;;8.80;7.72;;;;;;;15.31;100.00;101571.50;5225854;28;20395;-69
2021/10/19 07:05:18;;;;;;;8.35;7.03;;;;;;;15.36;100.00;101580.81;5232647;28;20021;-70
2021/10/19 07:07:50;;;;;;;9.27;8.00;;;;;;;15.35;100.00;101581.78;5230135;28;20172;-70
2021/10/19 07:10:21;;;;;;;7.90;7.10;;;;;;;15.40;100.00;101580.38;5233193;28;20017;-70
2021/10/19 07:12:52;;;;;;;8.30;7.50;;;;;;;15.42;100.00;101583.72;5230754;28;20049;-70
2021/10/19 07:15:24;;;;;;;8.48;7.68;;;;;;;15.45;100.00;101582.56;5233558;28;20029;-70
2021/10/19 07:17:55;;;;;;;8.75;7.78;;;;;;;15.47;100.00;101585.91;5232089;28;20061;-70
2021/10/19 07:20:26;;;;;;;8.60;7.70;;;;;;;15.48;100.00;101590.22;5234296;28;20025;-70
2021/10/19 07:23:01;;;;;;;8.70;7.85;;;;;;;15.43;100.00;101585.38;5229890;28;20083;-69
2021/10/19 07:25:32;;;;;;;8.93;8.02;;;;;;;15.49;100.00;101594.50;5233298;28;20079;-70
2021/10/19 07:28:04;;;;;;;9.60;7.60;;;;;;;15.49;100.00;101595.38;5234955;28;20025;-70
2021/10/19 07:30:35;;;;;;;9.52;8.02;;;;;;;15.54;100.00;101587.00;5229834;28;20025;-70
2021/10/19 07:33:07;;;;;;;8.25;7.35;;;;;;;15.54;100.00;101594.94;5228449;28;20060;-69
2021/10/19 07:35:38;;;;;;;10.13;7.28;;;;;;;15.54;100.00;101593.13;5228044;28;20028;-70
2021/10/19 07:38:11;;;;;;;8.70;7.20;;;;;;;15.59;100.00;101595.31;5229882;28;20128;-70
2021/10/19 07:40:43;;;;;;;7.38;6.68;;;;;;;15.55;100.00;101594.78;5229220;28;20017;-70
2021/10/19 07:43:14;;;;;;;7.72;6.93;;;;;;;15.61;100.00;101603.09;5230754;28;20387;-70
2021/10/19 07:45:46;;;;;;;8.43;6.55;;;;;;;15.64;100.00;101598.34;5231626;28;20026;-70
2021/10/19 07:48:17;;;;;;;7.57;6.60;;;;;;;15.67;100.00;101603.38;5231718;28;20021;-70
2021/10/19 07:50:48;;;;;;;7.00;6.30;;;;;;;15.69;100.00;101601.44;5228451;28;20559;-69
2021/10/19 07:53:19;;;;;;;6.93;6.22;;;;;;;15.71;100.00;101599.47;5229981;28;20021;-70
2021/10/19 07:55:51;;;;;;;7.82;6.00;;;;;;;15.70;100.00;101603.09;5229854;28;20048;-70
2021/10/19 07:58:22;;;;;;;6.15;5.55;;;;;;;15.76;100.00;101606.97;5230715;28;20125;-69
2021/10/19 08:00:54;;;;;;;6.68;5.88;;;;;;;15.79;100.00;101596.94;5230318;28;20037;-70
2021/10/19 08:03:26;;;;;;;6.25;5.65;;;;;;;15.84;100.00;101603.63;5231129;28;20056;-70
2021/10/19 08:05:57;;;;;;;7.10;6.05;;;;;;;15.81;100.00;101602.91;5228628;28;20029;-70
2021/10/19 08:08:28;;;;;;;9.20;5.53;;;;;;;15.85;100.00;101603.44;5229351;28;20506;-70
2021/10/19 08:11:00;;;;;;;6.45;5.70;;;;;;;15.87;100.00;101601.47;5231856;28;20399;-71
2021/10/19 08:13:34;;;;;;;7.55;5.85;;;;;;;15.91;100.00;101599.38;5231457;28;20060;-70
2021/10/19 08:16:05;;;;;;;6.70;4.88;;;;;;;15.89;100.00;101601.34;5232649;28;20033;-70
2021/10/19 08:18:37;;;;;;;7.18;5.03;;;;;;;15.94;100.00;101607.03;5233141;28;20013;-70
2021/10/19 08:21:09;;;;;;;5.43;4.93;;;;;;;15.94;100.00;101607.03;5232054;28;20071;-71
2021/10/19 08:23:40;;;;;;;5.20;4.60;;;;;;;15.95;100.00;101612.19;5231730;28;20419;-70
2021/10/19 08:26:12;;;;;;;4.63;4.22;;;;;;;15.97;100.00;101609.38;5232467;28;20029;-69
2021/10/19 08:28:44;;;;;;;5.20;4.38;;;;;;;16.02;100.00;101607.97;5230845;28;20028;-70
2021/10/19 08:31:16;;;;;;;4.85;4.00;;;;;;;15.99;100.00;101602.97;5230442;28;20018;-70
2021/10/19 08:33:50;;;;;;;4.60;4.00;;;;;;;16.00;100.00;101598.53;5230622;28;20033;-69
2021/10/19 08:36:21;;;;;;;4.40;3.63;;;;;;;16.04;100.00;101603.34;5229758;28;20036;-70
2021/10/19 08:38:53;;;;;;;6.35;4.25;;;;;;;16.04;100.00;101595.44;5228375;28;20483;-70
2021/10/19 08:41:27;;;;;;;4.80;4.30;;;;;;;16.07;100.00;101599.59;5228915;28;20066;-70
2021/10/19 08:43:58;;;;;;;4.85;3.88;;;;;;;16.08;100.00;101611.00;5228059;28;20026;-71
2021/10/19 08:46:29;;;;;;;5.43;4.40;;;;;;;16.05;100.00;101604.19;5229462;28;20041;-70
2021/10/19 08:49:01;;;;;;;6.47;4.38;;;;;;;16.07;100.00;101604.06;5231519;28;20026;-69
2021/10/19 08:51:32;;;;;;;5.20;4.10;;;;;;;16.08;100.00;101601.25;5232892;28;20498;-70
2021/10/19 08:54:07;;;;;;;6.63;4.75;;;;;;;16.12;100.00;101601.78;5228003;28;20048;-70
2021/10/19 08:56:40;;;;;;;6.85;5.20;;;;;;;16.10;100.00;101601.94;5230526;28;20439;-70
2021/10/19 08:59:12;;;;;;;5.57;4.22;;;;;;;16.12;100.00;101604.44;5229938;28;20060;-70
2021/10/19 09:01:43;;;;;;;5.80;4.43;;;;;;;16.16;100.00;101605.81;5230004;28;20079;-70
2021/10/19 09:04:15;;;;;;;4.20;3.80;;;;;;;16.16;100.00;101609.28;5230234;28;20029;-69
2021/10/19 09:06:46;;;;;;;4.85;3.92;;;;;;;16.18;100.00;101607.31;5230247;28;20029;-70
2021/10/19 09:09:23;;;;;;;4.97;3.88;;;;;;;16.19;100.00;101608.97;5230523;28;20372;-70
2021/10/19 09:11:56;;;;;;;5.18;4.18;;;;;;;16.16;100.00;101609.28;5232532;28;20053;-69
2021/10/19 09:14:29;;;;;;;;;;;;;;;16.57;100.00;101608.88;5230825;28;20095;-69
2021/10/19 09:17:04;;;;;;;4.20;3.80;;;;;;;16.26;100.00;101601.28;5231321;28;19917;-70
2021/10/19 09:19:39;;;;;;;5.00;4.50;;;;;;;16.30;100.00;101608.78;5229830;28;20026;-70
2021/10/19 09:22:12;;;;;;;6.07;4.10;;;;;;;16.25;100.00;101592.53;5233695;28;20034;-69
2021/10/19 09:24:43;;;;;;;7.97;5.22;;;;;;;16.33;100.00;101594.44;5230946;28;20425;-71
2021/10/19 09:27:16;;;;;;;5.40;4.90;;;;;;;16.37;100.00;101594.97;5232990;28;20037;-70
2021/10/19 09:29:49;;;;;;;6.50;4.75;;;;;;;16.38;100.00;101596.63;5231739;28;20025;-70
2021/10/19 09:32:21;;;;;;;6.20;5.35;;;;;;;16.42;100.00;101601.47;5231012;28;20033;-70
2021/10/19 09:34:53;;;;;;;5.97;4.85;;;;;;;16.47;100.00;101603.66;5232597;28;20676;-69
2021/10/19 09:37:24;;;;;;;5.85;5.25;;;;;;;16.49;100.00;101607.81;5232445;28;20136;-70
2021/10/19 09:39:58;;;;;;;5.97;5.35;;;;;;;16.54;100.00;101608.19;5232646;28;20060;-69
2021/10/19 09:42:31;;;;;;;6.75;5.95;;;;;;;16.55;100.00;101611.66;5231177;28;20479;-70
2021/10/19 09:45:02;;;;;;;6.75;6.05;;;;;;;16.55;100.00;101611.66;5229959;28;20029;-70
2021/10/19 09:47:38;;;;;;;7.68;6.28;;;;;;;16.58;100.00;101615.81;5230182;28;20022;-70
2021/10/19 09:50:10;;;;;;;7.35;6.65;;;;;;;16.59;100.00;101620.97;5229840;28;20030;-69
2021/10/19 09:52:43;;;;;;;9.55;7.53;;;;;;;16.66;100.00;101621.19;5228718;28;20024;-70
2021/10/19 09:55:16;;;;;;;10.27;7.30;;;;;;;16.64;100.00;101617.88;5234017;28;20344;-69
2021/10/19 09:57:50;;;;;;;;;;;;;;;16.97;100.00;101621.66;5234799;28;20511;-69
2021/10/19 10:00:22;;;;;;;8.27;6.68;;;;;;;16.71;100.00;101609.19;5231657;28;19917;-69
2021/10/19 10:02:54;;;;;;;9.25;7.28;;;;;;;16.72;100.00;101612.66;5233221;28;20032;-70
2021/10/19 10:05:25;;;;;;;10.07;8.00;;;;;;;16.74;100.00;101602.78;5236942;28;21232;-70
2021/10/19 10:07:58;;;;;;;9.75;8.00;;;;;;;16.76;100.00;101619.34;5233491;28;20037;-70
2021/10/19 10:10:29;;;;;;;9.88;7.60;;;;;;;16.77;100.00;101619.19;5235977;28;20090;-70
2021/10/19 10:13:06;;;;;;;11.70;8.50;;;;;;;16.84;100.00;101626.53;5234829;28;20053;-70
2021/10/19 10:15:37;;;;;;;12.32;8.50;;;;;;;16.84;100.00;101619.41;5234938;28;20031;-70
2021/10/19 10:18:10;;;;;;;11.07;8.57;;;;;;;16.90;100.00;101618.00;5233682;28;20037;-69
2021/10/19 10:20:47;;;;;;;10.98;8.55;;;;;;;16.92;100.00;101618.66;5235764;28;20627;-69
2021/10/19 10:23:27;;;;;;;10.27;8.98;;;;;;;17.01;100.00;101609.81;5234335;28;20025;-69
2021/10/19 10:25:59;;;;;;;10.80;9.73;;;;;;;16.97;100.00;101616.38;5235038;28;20479;-70
2021/10/19 10:28:33;;;;;;;11.32;10.13;;;;;;;17.01;100.00;101615.09;5235476;28;20025;-69
2021/10/19 10:31:07;;;;;;;10.30;9.13;;;;;;;17.00;100.00;101611.59;5235104;28;20540;-69
2021/10/19 10:33:42;;;;;;;12.52;9.50;;;;;;;17.03;100.00;101607.81;5232542;28;20553;-69
2021/10/19 10:36:15;;;;;;;12.35;9.90;;;;;;;17.06;100.00;101609.34;5235031;28;20030;-69
2021/10/19 10:38:56;;;;;;;12.18;10.45;;;;;;;17.13;100.00;101611.22;5235768;28;20033;-70
2021/10/19 10:41:36;;;;;;;13.13;11.38;;;;;;;17.15;100.00;101601.28;5234085;28;20029;-71
2021/10/19 10:44:09;;;;;;;11.98;10.70;;;;;;;17.11;100.00;101607.06;5233951;28;20041;-71
2021/10/19 10:46:40;;;;;;;12.07;10.38;;;;;;;17.10;100.00;101597.47;5234842;28;20026;-69
2021/10/19 10:49:12;;;;;;;12.23;10.85;;;;;;;17.17;100.00;101609.09;5232406;28;20033;-70
2021/10/19 10:51:44;;;;;;;14.68;12.35;;;;;;;17.12;100.00;101596.31;5235193;28;20068;-70
2021/10/19 10:54:16;;;;;;;14.48;12.18;;;;;;;17.17;100.00;101606.44;5235231;28;20021;-70
2021/10/19 10:56:50;;;;;;;12.93;11.20;;;;;;;17.19;100.00;101599.16;5234042;28;20029;-70
2021/10/19 10:59:26;;;;;;;14.38;11.63;;;;;;;17.22;100.00;101599.69;5232405;28;20025;-70
2021/10/19 11:02:10;;;;;;;18.45;13.05;;;;;;;17.24;100.00;101600.38;5234663;28;20024;-70
2021/10/19 11:04:46;;;;;;;16.13;13.15;;;;;;;17.24;100.00;101591.59;5233465;28;20498;-70
2021/10/19 11:07:35;;;;;;;18.27;13.70;;;;;;;17.32;100.00;101596.13;5232140;28;20032;-70
2021/10/19 11:10:15;;;;;;;15.05;12.70;;;;;;;17.21;100.00;101583.97;5233595;28;20145;-70
2021/10/19 11:12:46;;;;;;;18.17;13.98;;;;;;;17.23;100.00;101585.44;5232739;28;20132;-70
2021/10/19 11:15:18;;;;;;;13.88;12.52;;;;;;;17.26;100.00;101593.09;5232793;28;20553;-71
2021/10/19 11:17:53;;;;;;;16.45;12.55;;;;;;;17.26;100.00;101585.16;5233286;28;20563;-70
2021/10/19 11:20:26;;;;;;;17.95;13.82;;;;;;;17.32;100.00;101591.66;5233777;28;20090;-70
2021/10/19 11:23:00;;;;;;;;;;;;;;;17.67;100.00;101589.84;5233411;28;20033;-70
2021/10/19 11:25:31;;;;;;;17.88;12.30;;;;;;;17.37;100.00;101589.34;5234647;28;20240;-71
2021/10/19 11:28:04;;;;;;;12.48;11.07;;;;;;;17.34;100.00;101581.72;5233283;28;20076;-71
2021/10/19 11:30:36;;;;;;;14.73;13.18;;;;;;;17.36;100.00;101582.41;5232583;28;20028;-71
2021/10/19 11:33:08;;;;;;;13.50;12.10;;;;;;;17.40;100.00;101582.94;5231569;28;20403;-70